createdAt,value
2022-10-19T00:02:19.729Z,2.30
2022-10-19T00:04:47.626Z,1.73
2022-10-19T00:07:15.506Z,2.10
2022-10-19T00:09:44.319Z,2.33
2022-10-19T00:12:12.919Z,2.17
2022-10-19T00:14:42.141Z,2.43
2022-10-19T00:17:10.012Z,2.00
2022-10-19T00:19:37.900Z,2.10
2022-10-19T00:22:07.182Z,2.20
2022-10-19T00:24:37.018Z,2.13
2022-10-19T00:27:06.225Z,1.83
2022-10-19T00:29:34.109Z,2.03
2022-10-19T00:32:03.315Z,2.43
2022-10-19T00:34:31.227Z,2.47
2022-10-19T00:36:59.103Z,2.30
2022-10-19T00:39:26.988Z,2.40
2022-10-19T00:41:54.885Z,2.30
2022-10-19T00:45:01.008Z,1.90
2022-10-19T00:47:30.247Z,2.20
2022-10-19T00:49:58.220Z,1.90
2022-10-19T00:52:26.098Z,2.20
2022-10-19T00:54:54.163Z,2.17
2022-10-19T00:57:22.145Z,2.33
2022-10-19T00:59:50.009Z,2.40
2022-10-19T01:02:17.899Z,2.30
2022-10-19T01:04:48.688Z,1.73
2022-10-19T01:07:16.638Z,2.47
2022-10-19T01:09:44.519Z,2.10
2022-10-19T01:12:19.074Z,2.00
2022-10-19T01:14:54.667Z,2.20
2022-10-19T01:17:25.836Z,2.27
2022-10-19T01:20:15.826Z,2.40
2022-10-19T01:22:52.042Z,2.50
2022-10-19T01:25:22.772Z,2.07
2022-10-19T01:27:58.291Z,2.20
2022-10-19T01:30:33.757Z,2.33
2022-10-19T01:33:05.890Z,2.33
2022-10-19T01:35:36.712Z,2.23
2022-10-19T01:38:13.481Z,2.33
2022-10-19T01:40:43.660Z,2.30
2022-10-19T01:43:14.242Z,2.43
2022-10-19T01:45:45.395Z,2.20
2022-10-19T01:48:15.145Z,2.07
2022-10-19T01:50:44.689Z,2.10
2022-10-19T01:53:12.782Z,2.30
2022-10-19T01:55:43.307Z,2.63
2022-10-19T01:58:12.670Z,2.20
2022-10-19T02:00:43.338Z,2.30
2022-10-19T02:03:11.242Z,2.30
2022-10-19T02:05:39.133Z,2.10
2022-10-19T02:08:09.510Z,2.37
2022-10-19T02:10:38.313Z,2.33
2022-10-19T02:13:06.184Z,2.20
2022-10-19T02:15:34.381Z,2.50
2022-10-19T02:18:03.595Z,2.43
2022-10-19T02:20:31.475Z,2.40
2022-10-19T02:22:59.359Z,2.50
2022-10-19T02:25:27.249Z,2.73
2022-10-19T02:27:55.150Z,2.53
2022-10-19T02:30:23.059Z,2.43
2022-10-19T02:32:51.182Z,2.60
2022-10-19T02:35:20.464Z,2.33
2022-10-19T02:37:48.351Z,2.73
2022-10-19T02:40:16.290Z,2.40
2022-10-19T02:42:45.016Z,2.50
2022-10-19T02:45:14.354Z,2.50
2022-10-19T02:47:43.898Z,2.30
2022-10-19T02:50:12.041Z,2.37
2022-10-19T02:52:41.269Z,2.60
2022-10-19T02:55:09.579Z,2.40
2022-10-19T02:57:37.648Z,2.70
2022-10-19T03:00:06.595Z,2.70
2022-10-19T03:02:34.522Z,2.53
2022-10-19T03:05:02.501Z,2.50
2022-10-19T03:07:30.363Z,2.57
2022-10-19T03:09:59.584Z,2.70
2022-10-19T03:12:27.437Z,2.93
2022-10-19T03:14:55.332Z,2.40
2022-10-19T03:17:23.242Z,2.67
2022-10-19T03:19:51.128Z,2.73
2022-10-19T03:22:19.130Z,2.83
2022-10-19T03:24:46.990Z,2.83
2022-10-19T03:27:16.207Z,2.90
2022-10-19T03:29:44.069Z,2.60
2022-10-19T03:32:11.925Z,2.53
2022-10-19T03:34:39.955Z,2.63
2022-10-19T03:37:08.610Z,2.70
2022-10-19T03:39:36.497Z,2.80
2022-10-19T03:42:04.464Z,2.60
2022-10-19T03:44:33.684Z,2.60
2022-10-19T03:47:01.549Z,2.93
2022-10-19T03:49:29.424Z,2.57
2022-10-19T03:51:57.327Z,2.80
2022-10-19T03:54:27.405Z,2.80
2022-10-19T03:56:55.588Z,2.50
2022-10-19T03:59:24.293Z,2.70
2022-10-19T04:01:53.525Z,2.50
2022-10-19T04:04:21.385Z,2.60
2022-10-19T04:06:49.913Z,2.67
2022-10-19T04:09:18.871Z,3.00
2022-10-19T04:11:46.789Z,2.83
2022-10-19T04:14:22.713Z,3.00
2022-10-19T04:17:02.256Z,2.70
2022-10-19T04:19:30.220Z,2.70
2022-10-19T04:21:58.220Z,2.77
2022-10-19T04:24:26.106Z,2.50
2022-10-19T04:26:55.275Z,2.80
2022-10-19T04:29:26.337Z,2.73
2022-10-19T04:31:57.555Z,2.73
2022-10-19T04:34:26.771Z,2.93
2022-10-19T04:36:54.782Z,2.60
2022-10-19T04:39:22.661Z,2.87
2022-10-19T04:41:50.552Z,2.60
2022-10-19T04:44:18.523Z,2.97
2022-10-19T04:46:46.559Z,2.60
2022-10-19T04:49:16.524Z,2.67
2022-10-19T04:51:48.738Z,2.87
2022-10-19T04:54:16.647Z,3.00
2022-10-19T04:56:44.516Z,3.03
2022-10-19T04:59:12.421Z,2.77
2022-10-19T05:01:44.774Z,2.90
2022-10-19T05:04:15.279Z,2.70
2022-10-19T05:06:43.164Z,2.80
2022-10-19T05:09:12.438Z,3.10
2022-10-19T05:11:40.426Z,2.60
2022-10-19T05:14:08.644Z,3.00
2022-10-19T05:16:38.426Z,3.30
2022-10-19T05:19:06.262Z,2.83
2022-10-19T05:21:34.225Z,2.97
2022-10-19T05:24:02.120Z,2.80
2022-10-19T05:26:31.396Z,2.70
2022-10-19T05:29:01.757Z,2.80
2022-10-19T05:31:30.540Z,3.03
2022-10-19T05:33:58.533Z,2.77
2022-10-19T05:36:27.664Z,2.67
2022-10-19T05:38:56.551Z,2.70
2022-10-19T05:41:24.885Z,2.67
2022-10-19T05:43:55.480Z,2.67
2022-10-19T05:46:23.547Z,2.80
2022-10-19T05:48:51.411Z,2.70
2022-10-19T05:51:20.512Z,2.80
2022-10-19T05:53:48.457Z,2.80
2022-10-19T05:56:17.186Z,2.67
2022-10-19T05:58:45.086Z,2.70
2022-10-19T06:01:14.900Z,2.60
2022-10-19T06:03:42.998Z,2.50
2022-10-19T06:06:10.948Z,2.73
2022-10-19T06:08:39.070Z,2.60
2022-10-19T06:11:07.321Z,2.93
2022-10-19T06:13:35.194Z,2.63
2022-10-19T06:16:03.120Z,2.33
2022-10-19T06:18:32.383Z,2.60
2022-10-19T06:21:02.914Z,2.60
2022-10-19T06:23:31.017Z,2.90
2022-10-19T06:25:59.048Z,2.70
2022-10-19T06:28:26.939Z,2.70
2022-10-19T06:30:54.899Z,2.57
2022-10-19T06:33:22.970Z,2.47
2022-10-19T06:35:52.195Z,3.10
2022-10-19T06:38:20.061Z,2.73
2022-10-19T06:40:49.052Z,2.60
2022-10-19T06:43:16.969Z,2.87
2022-10-19T06:45:44.831Z,2.80
2022-10-19T06:48:12.743Z,2.47
2022-10-19T06:50:40.593Z,2.60
2022-10-19T06:53:09.810Z,2.67
2022-10-19T06:55:37.697Z,2.60
2022-10-19T06:58:05.578Z,2.70
2022-10-19T07:00:33.495Z,2.40
2022-10-19T07:03:01.458Z,2.80
2022-10-19T07:05:29.333Z,2.90
2022-10-19T07:07:58.624Z,3.00
2022-10-19T07:10:27.967Z,2.57
2022-10-19T07:12:57.316Z,2.87
2022-10-19T07:15:25.256Z,2.80
2022-10-19T07:17:54.112Z,2.53
2022-10-19T07:20:21.988Z,2.63
2022-10-19T07:22:49.844Z,2.80
2022-10-19T07:25:17.963Z,3.00
2022-10-19T07:27:47.182Z,3.03
2022-10-19T07:30:15.041Z,2.93
2022-10-19T07:32:46.771Z,2.80
2022-10-19T07:35:15.270Z,2.77
2022-10-19T07:37:43.180Z,2.87
2022-10-19T07:40:12.495Z,2.93
2022-10-19T07:42:40.365Z,3.00
2022-10-19T07:45:10.492Z,2.80
2022-10-19T07:47:38.374Z,2.60
2022-10-19T07:50:06.692Z,2.93
2022-10-19T07:52:36.841Z,3.27
2022-10-19T07:55:05.490Z,2.87
2022-10-19T07:57:33.353Z,2.90
2022-10-19T08:00:01.274Z,2.90
2022-10-19T08:02:39.422Z,2.83
2022-10-19T08:05:18.580Z,2.93
2022-10-19T08:07:47.016Z,2.80
2022-10-19T08:10:14.890Z,2.93
2022-10-19T08:12:42.744Z,2.80
2022-10-19T08:15:11.058Z,3.10
2022-10-19T08:17:40.674Z,3.00
2022-10-19T08:20:08.909Z,2.90
2022-10-19T08:22:37.039Z,3.10
2022-10-19T08:25:05.653Z,2.80
2022-10-19T08:27:33.595Z,2.83
2022-10-19T08:30:01.520Z,3.03
2022-10-19T08:32:29.381Z,3.10
2022-10-19T08:34:58.582Z,2.67
2022-10-19T08:37:43.774Z,3.40
2022-10-19T08:40:17.734Z,3.20
2022-10-19T08:42:50.341Z,3.00
2022-10-19T08:45:28.066Z,3.00
2022-10-19T08:48:08.745Z,2.90
2022-10-19T08:50:39.067Z,3.13
2022-10-19T08:53:08.202Z,3.10
2022-10-19T08:55:44.655Z,3.10
2022-10-19T08:58:21.676Z,3.37
2022-10-19T09:00:51.467Z,3.17
2022-10-19T09:03:32.083Z,2.80
2022-10-19T09:06:20.208Z,2.60
2022-10-19T09:08:48.147Z,2.90
2022-10-19T09:11:16.076Z,3.00
2022-10-19T09:14:04.163Z,2.80
2022-10-19T09:16:33.202Z,3.00
2022-10-19T09:19:01.117Z,2.90
2022-10-19T09:21:40.894Z,2.70
2022-10-19T09:24:22.962Z,3.10
2022-10-19T09:26:52.419Z,2.80
2022-10-19T09:29:22.905Z,2.50
2022-10-19T09:31:50.822Z,3.00
2022-10-19T09:34:22.162Z,2.80
2022-10-19T09:36:54.073Z,2.67
2022-10-19T09:39:23.512Z,2.70
2022-10-19T09:41:55.765Z,3.00
2022-10-19T09:44:24.343Z,2.80
2022-10-19T09:46:53.318Z,2.87
2022-10-19T09:49:21.335Z,2.67
2022-10-19T09:51:52.207Z,2.90
2022-10-19T09:54:27.610Z,2.87
2022-10-19T09:56:56.111Z,3.00
2022-10-19T09:59:25.639Z,2.53
2022-10-19T10:02:14.958Z,2.90
2022-10-19T10:04:42.847Z,2.80
2022-10-19T10:07:15.212Z,2.83
2022-10-19T10:09:43.192Z,2.80
2022-10-19T10:12:13.597Z,2.73
2022-10-19T10:14:41.459Z,2.60
2022-10-19T10:17:15.083Z,2.50
2022-10-19T10:19:51.577Z,2.33
2022-10-19T10:22:28.117Z,2.60
2022-10-19T10:24:56.667Z,2.50
2022-10-19T10:27:32.094Z,2.50
2022-10-19T10:30:00.374Z,2.40
2022-10-19T10:32:28.633Z,2.50
2022-10-19T10:35:01.236Z,2.20
2022-10-19T10:37:35.644Z,2.67
2022-10-19T10:40:05.051Z,2.43
2022-10-19T10:42:35.796Z,2.53
2022-10-19T10:45:04.058Z,2.57
2022-10-19T10:47:32.189Z,2.53
2022-10-19T10:50:02.679Z,2.77
2022-10-19T10:52:32.467Z,2.60
2022-10-19T10:55:02.070Z,2.93
2022-10-19T10:57:31.809Z,2.53
2022-10-19T11:00:02.362Z,2.43
2022-10-19T11:02:36.951Z,2.47
2022-10-19T11:05:07.572Z,2.57
2022-10-19T11:07:37.197Z,2.30
2022-10-19T11:10:09.948Z,2.70
2022-10-19T11:12:39.881Z,2.40
2022-10-19T11:15:13.890Z,2.40
2022-10-19T11:17:44.830Z,2.33
2022-10-19T11:20:15.696Z,2.60
2022-10-19T11:22:47.755Z,2.53
2022-10-19T11:25:24.949Z,2.37
2022-10-19T11:27:57.712Z,2.73
2022-10-19T11:30:25.861Z,2.60
2022-10-19T11:32:58.764Z,2.30
2022-10-19T11:35:36.123Z,2.50
2022-10-19T11:38:20.215Z,2.20
2022-10-19T11:41:16.387Z,2.80
2022-10-19T11:43:44.040Z,3.10
2022-10-19T11:46:14.780Z,3.23
2022-10-19T11:48:54.938Z,3.50
2022-10-19T11:51:26.535Z,3.60
2022-10-19T11:54:01.884Z,3.60
2022-10-19T11:56:44.807Z,3.63
2022-10-19T11:59:24.496Z,4.27
2022-10-19T12:01:55.842Z,4.00
2022-10-19T12:04:46.672Z,4.33
2022-10-19T12:07:33.949Z,3.83
2022-10-19T12:10:07.599Z,5.03
2022-10-19T12:12:37.112Z,5.57
2022-10-19T12:15:15.281Z,4.67
2022-10-19T12:17:44.410Z,4.77
2022-10-19T12:20:19.858Z,5.40
2022-10-19T12:22:48.022Z,4.90
2022-10-19T12:25:17.614Z,5.30
2022-10-19T12:27:47.479Z,5.40
2022-10-19T12:30:16.528Z,4.83
2022-10-19T12:32:53.456Z,4.90
2022-10-19T12:35:32.185Z,4.93
2022-10-19T12:38:02.684Z,4.80
2022-10-19T12:40:35.131Z,4.63
2022-10-19T12:43:04.554Z,4.57
2022-10-19T12:45:32.586Z,4.30
2022-10-19T12:48:18.826Z,4.50
2022-10-19T12:51:03.568Z,4.40
2022-10-19T12:53:35.785Z,4.40
2022-10-19T12:56:06.421Z,4.33
2022-10-19T12:58:37.433Z,4.47
2022-10-19T13:01:06.419Z,3.73
2022-10-19T13:03:36.967Z,4.10
2022-10-19T13:06:09.060Z,4.03
2022-10-19T13:08:43.231Z,3.97
2022-10-19T13:11:14.721Z,4.03
2022-10-19T13:13:56.597Z,3.97
2022-10-19T13:17:07.539Z,3.63
2022-10-19T13:19:35.411Z,3.57
2022-10-19T13:22:24.522Z,3.43
2022-10-19T13:25:15.339Z,3.80
2022-10-19T13:27:44.779Z,4.00
2022-10-19T13:30:46.125Z,3.77
2022-10-19T13:33:50.860Z,3.30
2022-10-19T13:36:19.237Z,3.60
2022-10-19T13:38:48.047Z,3.30
2022-10-19T13:41:18.829Z,3.23
2022-10-19T13:44:06.694Z,3.50
2022-10-19T13:46:49.817Z,3.30
2022-10-19T13:49:49.992Z,3.57
2022-10-19T13:52:31.399Z,3.33
2022-10-19T13:55:19.676Z,3.13
2022-10-19T13:57:55.303Z,3.13
2022-10-19T14:00:26.272Z,3.30
2022-10-19T14:03:10.750Z,3.10
2022-10-19T14:05:53.599Z,3.30
2022-10-19T14:09:16.118Z,3.10
2022-10-19T14:11:44.560Z,3.20
2022-10-19T14:14:14.681Z,3.60
2022-10-19T14:16:52.684Z,3.30
2022-10-19T14:19:27.707Z,3.60
2022-10-19T14:21:56.883Z,3.00
2022-10-19T14:24:32.751Z,3.30
2022-10-19T14:27:01.830Z,2.83
2022-10-19T14:29:29.811Z,3.20
2022-10-19T14:31:59.581Z,2.80
2022-10-19T14:34:27.520Z,3.23
2022-10-19T14:36:56.039Z,3.10
2022-10-19T14:39:26.952Z,2.80
2022-10-19T14:41:55.542Z,3.33
2022-10-19T14:44:36.133Z,3.07
2022-10-19T14:47:19.928Z,3.10
2022-10-19T14:49:47.809Z,3.00
2022-10-19T14:52:18.063Z,3.00
2022-10-19T14:54:46.926Z,2.83
2022-10-19T14:57:15.964Z,3.20
2022-10-19T14:59:46.189Z,2.83
2022-10-19T15:02:18.717Z,3.00
2022-10-19T15:04:46.579Z,2.97
2022-10-19T15:07:17.242Z,2.80
2022-10-19T15:09:49.439Z,3.27
2022-10-19T15:12:19.249Z,2.93
2022-10-19T15:14:47.128Z,2.90
2022-10-19T15:17:29.115Z,2.80
2022-10-19T15:19:58.364Z,2.97
2022-10-19T15:22:39.143Z,2.70
2022-10-19T15:25:28.598Z,3.07
2022-10-19T15:27:57.597Z,3.00
2022-10-19T15:30:27.940Z,3.30
2022-10-19T15:33:09.184Z,2.90
2022-10-19T15:35:37.919Z,3.20
2022-10-19T15:38:09.834Z,2.97
2022-10-19T15:40:38.841Z,3.00
2022-10-19T15:43:33.592Z,2.90
2022-10-19T15:46:02.264Z,2.80
2022-10-19T15:48:48.113Z,2.93
2022-10-19T15:51:42.996Z,2.97
2022-10-19T15:54:11.135Z,3.07
2022-10-19T15:56:40.022Z,3.20
2022-10-19T15:59:11.459Z,2.90
2022-10-19T16:01:39.440Z,3.20
2022-10-19T16:04:08.746Z,3.23
2022-10-19T16:06:38.739Z,3.03
2022-10-19T16:09:06.822Z,2.80
2022-10-19T16:11:35.275Z,3.10
2022-10-19T16:14:03.314Z,2.90
2022-10-19T16:16:34.485Z,3.10
2022-10-19T16:19:02.482Z,3.00
2022-10-19T16:21:32.950Z,2.97
2022-10-19T16:24:00.978Z,3.30
2022-10-19T16:26:29.159Z,3.20
2022-10-19T16:28:57.725Z,2.87
2022-10-19T16:31:25.607Z,2.97
2022-10-19T16:33:53.566Z,2.90
2022-10-19T16:36:21.447Z,2.83
2022-10-19T16:38:50.681Z,3.10
2022-10-19T16:41:18.573Z,3.00
2022-10-19T16:43:48.245Z,3.03
2022-10-19T16:46:16.151Z,3.20
2022-10-19T16:48:44.022Z,2.80
2022-10-19T16:51:36.417Z,2.90
2022-10-19T16:54:06.348Z,2.87
2022-10-19T16:56:34.566Z,2.80
2022-10-19T16:59:03.376Z,2.83
2022-10-19T17:01:31.523Z,2.90
2022-10-19T17:03:59.587Z,2.90
2022-10-19T17:06:27.913Z,2.87
2022-10-19T17:11:46.157Z,2.63
2022-10-19T17:14:14.081Z,2.90
2022-10-19T17:16:41.982Z,2.60
2022-10-19T17:19:09.992Z,2.80
2022-10-19T17:21:38.620Z,2.50
2022-10-19T17:24:07.274Z,2.73
2022-10-19T17:26:36.475Z,2.60
2022-10-19T17:29:05.918Z,2.40
2022-10-19T17:31:33.844Z,2.67
2022-10-19T17:34:01.952Z,2.70
2022-10-19T17:36:31.109Z,2.70
2022-10-19T17:39:00.189Z,2.60
2022-10-19T17:41:28.394Z,2.50
2022-10-19T17:43:56.720Z,2.87
2022-10-19T17:46:27.140Z,2.57
2022-10-19T17:48:55.074Z,2.57
2022-10-19T17:51:24.517Z,2.73
2022-10-19T17:53:52.413Z,2.90
2022-10-19T17:56:20.973Z,2.53
2022-10-19T17:58:49.252Z,2.40
2022-10-19T18:01:17.350Z,2.80
2022-10-19T18:03:46.608Z,2.70
2022-10-19T18:06:15.446Z,2.50
2022-10-19T18:08:44.609Z,2.60
2022-10-19T18:11:13.826Z,2.40
2022-10-19T18:13:41.839Z,2.63
2022-10-19T18:16:10.584Z,2.50
2022-10-19T18:18:39.977Z,2.40
2022-10-19T18:21:11.316Z,2.67
2022-10-19T18:23:39.280Z,2.23
2022-10-19T18:26:07.928Z,2.67
2022-10-19T18:28:35.957Z,2.40
2022-10-19T18:31:07.728Z,2.40
2022-10-19T18:33:35.674Z,2.27
2022-10-19T18:36:03.542Z,2.70
2022-10-19T18:38:32.859Z,2.37
2022-10-19T18:41:02.697Z,2.50
2022-10-19T18:43:30.585Z,2.40
2022-10-19T18:45:59.411Z,2.30
2022-10-19T18:48:28.092Z,2.43
2022-10-19T18:50:55.975Z,2.20
2022-10-19T18:53:24.197Z,2.30
2022-10-19T18:55:59.254Z,2.30
2022-10-19T18:58:27.167Z,2.47
2022-10-19T19:01:03.735Z,2.43
2022-10-19T19:03:31.641Z,2.40
2022-10-19T19:06:04.454Z,2.07
2022-10-19T19:08:34.826Z,2.20
2022-10-19T19:11:11.302Z,2.20
2022-10-19T19:13:39.247Z,2.50
2022-10-19T19:16:07.584Z,2.23
2022-10-19T19:18:35.516Z,2.30
2022-10-19T19:21:03.368Z,2.10
2022-10-19T19:23:31.330Z,2.20
2022-10-19T19:25:59.191Z,2.50
2022-10-19T19:28:28.422Z,2.23
2022-10-19T19:30:56.326Z,2.20
2022-10-19T19:33:24.220Z,2.23
2022-10-19T19:35:52.311Z,2.40
2022-10-19T19:38:20.167Z,2.30
2022-10-19T19:40:48.053Z,2.40
2022-10-19T19:43:16.182Z,2.33
2022-10-19T19:45:45.452Z,2.00
2022-10-19T19:48:13.393Z,2.30
2022-10-19T19:50:41.270Z,2.03
2022-10-19T19:53:09.171Z,2.20
2022-10-19T19:55:39.067Z,2.23
2022-10-19T19:58:07.262Z,2.00
2022-10-19T20:00:35.386Z,2.00
2022-10-19T20:03:04.616Z,2.10
2022-10-19T20:05:32.964Z,2.40
2022-10-19T20:08:00.827Z,2.17
2022-10-19T20:10:28.713Z,2.10
2022-10-19T20:12:56.615Z,2.17
2022-10-19T20:15:24.546Z,2.00
2022-10-19T20:17:52.404Z,2.33
2022-10-19T20:20:22.198Z,2.23
2022-10-19T20:22:50.146Z,2.40
2022-10-19T20:25:18.157Z,2.10
2022-10-19T20:27:46.027Z,2.10
2022-10-19T20:30:13.918Z,2.10
2022-10-19T20:32:41.802Z,2.10
2022-10-19T20:35:10.273Z,2.20
2022-10-19T20:37:39.483Z,1.90
2022-10-19T20:40:09.064Z,2.20
2022-10-19T20:42:37.237Z,2.10
2022-10-19T20:45:06.073Z,2.40
2022-10-19T20:47:33.952Z,2.10
2022-10-19T20:52:34.856Z,2.10
2022-10-19T20:55:04.376Z,2.03
2022-10-19T20:57:32.289Z,2.17
2022-10-19T21:00:00.176Z,2.00
2022-10-19T21:02:28.082Z,2.23
2022-10-19T21:04:55.990Z,2.17
2022-10-19T21:07:23.876Z,2.10
2022-10-19T21:09:51.739Z,2.10
2022-10-19T21:12:20.969Z,2.20
2022-10-19T21:14:49.927Z,2.10
2022-10-19T21:17:17.803Z,2.20
2022-10-19T21:19:45.686Z,2.30
2022-10-19T21:22:13.898Z,2.17
2022-10-19T21:24:41.798Z,2.10
2022-10-19T21:27:09.920Z,2.00
2022-10-19T21:29:39.336Z,2.00
2022-10-19T21:32:07.457Z,2.13
2022-10-19T21:34:35.504Z,2.07
2022-10-19T21:37:03.859Z,2.20
2022-10-19T21:39:31.757Z,2.20
2022-10-19T21:41:59.639Z,2.20
2022-10-19T21:44:27.520Z,2.03
2022-10-19T21:46:56.762Z,2.10
2022-10-19T21:49:24.627Z,2.00
2022-10-19T21:51:53.541Z,2.17
2022-10-19T21:54:22.100Z,1.93
2022-10-19T21:56:50.225Z,2.10
2022-10-19T21:59:18.309Z,2.10
2022-10-19T22:01:46.276Z,2.17
2022-10-19T22:04:16.187Z,2.03
2022-10-19T22:06:44.100Z,2.40
2022-10-19T22:09:14.352Z,2.10
2022-10-19T22:11:42.233Z,2.13
2022-10-19T22:14:11.244Z,2.20
2022-10-19T22:16:39.098Z,2.27
2022-10-19T22:19:07.130Z,2.13
2022-10-19T22:24:10.317Z,2.13
2022-10-19T22:26:39.867Z,2.30
2022-10-19T22:29:07.916Z,2.00
2022-10-19T22:31:36.573Z,2.20
2022-10-19T22:34:05.493Z,2.10
2022-10-19T22:36:33.347Z,2.03
2022-10-19T22:39:02.548Z,2.33
2022-10-19T22:41:30.395Z,2.10
2022-10-19T22:43:58.503Z,2.20
2022-10-19T22:46:26.384Z,2.43
2022-10-19T22:48:54.322Z,2.03
2022-10-19T22:51:22.294Z,2.00
2022-10-19T22:53:50.151Z,1.97
2022-10-19T22:56:19.371Z,2.10
2022-10-19T22:58:47.240Z,2.20
2022-10-19T23:01:16.061Z,2.00
2022-10-19T23:03:44.039Z,2.10
2022-10-19T23:06:14.338Z,2.27
2022-10-19T23:08:42.333Z,2.20
2022-10-19T23:11:10.221Z,2.07
2022-10-19T23:13:39.462Z,1.93
2022-10-19T23:16:07.909Z,2.20
2022-10-19T23:18:36.444Z,2.20
2022-10-19T23:21:06.208Z,2.10
2022-10-19T23:23:34.329Z,2.20
2022-10-19T23:26:03.499Z,2.00
2022-10-19T23:28:31.635Z,2.10
2022-10-19T23:31:04.531Z,2.10
2022-10-19T23:33:32.547Z,2.10
2022-10-19T23:36:03.994Z,1.90
2022-10-19T23:38:31.904Z,2.47
2022-10-19T23:40:59.783Z,2.17
2022-10-19T23:43:27.729Z,2.30
2022-10-19T23:45:55.652Z,2.17
2022-10-19T23:48:24.879Z,2.07
2022-10-19T23:51:00.023Z,2.30
2022-10-19T23:53:28.131Z,2.13
2022-10-19T23:55:59.728Z,2.07
2022-10-19T23:58:27.611Z,2.03
